WXM80 ListenWXM80 Stop

You find our weather info also at:

UK Metoffice

WeatherCloud

Weather Underground

Northeastern Weather Network

AWEKAS

Citizen Weather Observer Program (CWOP)

HAMweather, WeatherForYou, PWS Weather


Weather Underground History page Text

Daily Summary for April 21, 2016 Units:  English    Metric   Both
« Previous Day
Next Day »
Daily Weekly Monthly Yearly Custom
  High: Low: Average:
Temperature: 73.5 °F 42.3 °F 58.8 °F
Dew Point: 53.5 °F 33.5 °F 42.6 °F
Humidity: 86 % 29 % 58 %
Wind Speed: 12.6 mph 0.0 mph 3.5 mph
Wind Gust: 19.6 mph - -
Wind:- - SW
Pressure: 30.20 in 29.94 in -
Precipitation: 0.00 in    
Historical Graphs
 
 
Tabular Data for April 21, 2016
Time Temperature Dew Point Pressure Wind Wind Speed Wind Gust Humidity Rainfall Rate (Hourly)
00:03 47.4 °F 38.8 °F 30.20 in Calm     72 % 0.00 in
00:08 47.2 °F 38.6 °F 30.20 in Calm   1.2 mph 72 % 0.00 in
00:13 47.0 °F 38.8 °F 30.20 in Calm     73 % 0.00 in
00:18 46.9 °F 39.0 °F 30.20 in West 0.9 mph 2.3 mph 74 % 0.00 in
00:23 46.6 °F 39.1 °F 30.19 in West 0.6 mph 2.3 mph 75 % 0.00 in
00:28 46.5 °F 39.3 °F 30.19 in Calm     76 % 0.00 in
00:33 46.3 °F 39.1 °F 30.19 in Calm     76 % 0.00 in
00:38 46.1 °F 39.0 °F 30.19 in Calm     76 % 0.00 in
00:43 45.9 °F 38.4 °F 30.19 in Calm     75 % 0.00 in
00:49 45.7 °F 38.9 °F 30.19 in West 0.3 mph 1.2 mph 77 % 0.00 in
00:54 45.5 °F 39.7 °F 30.19 in Calm     80 % 0.00 in
00:59 45.3 °F 39.5 °F 30.19 in Calm     80 % 0.00 in
01:04 45.2 °F 39.4 °F 30.19 in Calm   1.0 mph 80 % 0.00 in
01:09 45.0 °F 39.5 °F 30.19 in Calm     81 % 0.00 in
01:14 44.9 °F 39.7 °F 30.19 in Calm     82 % 0.00 in
01:19 44.7 °F 39.2 °F 30.19 in Calm     81 % 0.00 in
01:24 44.6 °F 39.1 °F 30.19 in Calm     81 % 0.00 in
01:29 44.4 °F 38.9 °F 30.19 in Calm     81 % 0.00 in
01:34 44.3 °F 38.8 °F 30.19 in Calm     81 % 0.00 in
01:40 44.2 °F 38.7 °F 30.19 in Calm     81 % 0.00 in
01:45 44.0 °F 38.5 °F 30.19 in Calm     81 % 0.00 in
01:50 43.8 °F 38.3 °F 30.19 in Calm     81 % 0.00 in
01:55 43.6 °F 38.5 °F 30.19 in Calm     82 % 0.00 in
02:00 43.5 °F 38.4 °F 30.18 in Calm     82 % 0.00 in
02:10 43.2 °F 38.1 °F 30.18 in Calm     82 % 0.00 in
02:15 43.1 °F 38.0 °F 30.18 in Calm     82 % 0.00 in
02:20 43.0 °F 37.9 °F 30.18 in Calm     82 % 0.00 in
02:25 42.9 °F 38.1 °F 30.18 in Calm     83 % 0.00 in
02:31 42.9 °F 38.4 °F 30.18 in Calm     84 % 0.00 in
02:36 42.8 °F 38.3 °F 30.18 in Calm     84 % 0.00 in
02:41 42.7 °F 38.2 °F 30.18 in West 0.1 mph 1.2 mph 84 % 0.00 in
02:46 42.5 °F 38.3 °F 30.18 in Calm     85 % 0.00 in
02:51 42.5 °F 38.3 °F 30.17 in West 1.5 mph 3.0 mph 85 % 0.00 in
02:56 42.4 °F 38.5 °F 30.17 in West 0.9 mph 2.3 mph 86 % 0.00 in
03:01 42.4 °F 38.5 °F 30.17 in WSW 1.7 mph 3.5 mph 86 % 0.00 in
03:06 42.4 °F 38.5 °F 30.17 in WSW 2.1 mph 3.5 mph 86 % 0.00 in
03:11 42.3 °F 38.4 °F 30.17 in WSW 2.2 mph 3.5 mph 86 % 0.00 in
03:16 42.3 °F 38.4 °F 30.17 in WSW 1.8 mph 2.3 mph 86 % 0.00 in
03:22 42.4 °F 37.9 °F 30.17 in WSW 2.0 mph 3.0 mph 84 % 0.00 in
03:27 42.5 °F 37.4 °F 30.17 in SW 3.0 mph 4.6 mph 82 % 0.00 in
03:32 42.7 °F 37.0 °F 30.16 in SSW 3.7 mph 5.8 mph 80 % 0.00 in
03:37 42.9 °F 36.8 °F 30.17 in SSW 2.9 mph 4.0 mph 79 % 0.00 in
03:42 43.3 °F 36.2 °F 30.17 in SW 1.8 mph 3.5 mph 76 % 0.00 in
03:47 43.5 °F 36.1 °F 30.17 in SSW 1.7 mph 5.0 mph 75 % 0.00 in
03:52 43.8 °F 35.7 °F 30.16 in SW 4.2 mph 6.0 mph 73 % 0.00 in
03:57 44.1 °F 35.6 °F 30.17 in SW 2.3 mph 4.6 mph 72 % 0.00 in
04:02 44.3 °F 35.1 °F 30.17 in SW 0.8 mph 3.5 mph 70 % 0.00 in
04:07 44.6 °F 34.7 °F 30.17 in SSW 2.6 mph 5.8 mph 68 % 0.00 in
04:13 44.8 °F 34.1 °F 30.17 in South 1.8 mph 4.0 mph 66 % 0.00 in
04:18 45.1 °F 33.6 °F 30.17 in WSW 3.0 mph 5.8 mph 64 % 0.00 in
04:23 45.4 °F 33.5 °F 30.17 in SW 2.6 mph 4.6 mph 63 % 0.00 in
04:28 45.7 °F 33.8 °F 30.17 in SW 4.3 mph 6.9 mph 63 % 0.00 in
04:33 46.0 °F 34.1 °F 30.16 in SSW 4.5 mph 6.9 mph 63 % 0.00 in
04:43 46.2 °F 34.3 °F 30.17 in South 2.0 mph 4.6 mph 63 % 0.00 in
04:48 46.3 °F 34.8 °F 30.16 in WSW 2.0 mph 3.5 mph 64 % 0.00 in
04:53 46.3 °F 34.8 °F 30.17 in WSW 3.9 mph 10.4 mph 64 % 0.00 in
04:58 46.4 °F 34.9 °F 30.16 in WSW 4.7 mph 4.7 mph 64 % 0.00 in
05:04 46.4 °F 34.9 °F 30.16 in SW 2.4 mph 9.2 mph 64 % 0.00 in
05:09 46.5 °F 35.0 °F 30.16 in SSW 1.6 mph 3.5 mph 64 % 0.00 in
05:14 46.5 °F 35.0 °F 30.16 in SSW 3.8 mph 5.8 mph 64 % 0.00 in
05:19 46.5 °F 35.4 °F 30.16 in SW 3.0 mph 3.5 mph 65 % 0.00 in
05:24 46.6 °F 35.5 °F 30.16 in SSW 4.0 mph 5.8 mph 65 % 0.00 in
05:34 46.6 °F 35.8 °F 30.16 in SW 2.9 mph 4.6 mph 66 % 0.00 in
05:39 46.6 °F 35.8 °F 30.16 in SW 3.9 mph 6.9 mph 66 % 0.00 in
05:44 46.6 °F 35.8 °F 30.16 in SW 2.6 mph 3.5 mph 66 % 0.00 in
05:50 46.6 °F 35.8 °F 30.16 in WSW 2.8 mph 6.0 mph 66 % 0.00 in
06:00 46.6 °F 36.2 °F 30.16 in SSW 2.8 mph 5.8 mph 67 % 0.00 in
06:05 46.5 °F 36.5 °F 30.16 in SSW 2.9 mph 5.8 mph 68 % 0.00 in
06:10 46.5 °F 36.5 °F 30.16 in SW 2.5 mph 4.6 mph 68 % 0.00 in
06:15 46.5 °F 36.9 °F 30.16 in SW 3.5 mph 9.2 mph 69 % 0.00 in
06:20 46.5 °F 36.9 °F 30.16 in SW 1.6 mph 3.5 mph 69 % 0.00 in
06:25 46.5 °F 37.2 °F 30.16 in SW 4.3 mph 7.0 mph 70 % 0.00 in
06:30 46.6 °F 37.3 °F 30.16 in WSW 1.4 mph 3.5 mph 70 % 0.00 in
06:35 46.7 °F 37.4 °F 30.16 in SW 0.8 mph 3.5 mph 70 % 0.00 in
06:41 46.9 °F 38.0 °F 30.16 in WSW 3.6 mph 6.9 mph 71 % 0.00 in
06:46 47.1 °F 38.2 °F 30.16 in SSW 0.4 mph 3.5 mph 71 % 0.00 in
06:51 47.4 °F 38.1 °F 30.16 in West 0.3 mph 1.2 mph 70 % 0.00 in
06:56 47.7 °F 38.4 °F 30.16 in SW 0.4 mph 2.0 mph 70 % 0.00 in
07:01 48.0 °F 38.7 °F 30.16 in SSW 4.2 mph 6.9 mph 70 % 0.00 in
07:06 48.4 °F 38.7 °F 30.16 in SSW 2.5 mph 6.9 mph 69 % 0.00 in
07:11 48.8 °F 38.7 °F 30.16 in SW 4.2 mph 8.1 mph 68 % 0.00 in
07:16 49.2 °F 38.7 °F 30.16 in SW 5.5 mph 9.2 mph 67 % 0.00 in
07:21 49.7 °F 39.6 °F 30.16 in SW 3.0 mph 8.0 mph 68 % 0.00 in
07:26 50.1 °F 39.2 °F 30.16 in SW 5.7 mph 9.2 mph 66 % 0.00 in
07:32 50.5 °F 39.2 °F 30.16 in SSW 3.5 mph 6.0 mph 65 % 0.00 in
07:37 50.9 °F 39.1 °F 30.16 in SW 5.8 mph 8.1 mph 64 % 0.00 in
07:42 51.3 °F 39.1 °F 30.16 in WSW 3.3 mph 11.5 mph 63 % 0.00 in
07:52 51.9 °F 39.7 °F 30.16 in SW 2.5 mph 5.8 mph 63 % 0.00 in
07:57 52.2 °F 40.0 °F 30.16 in SW 4.9 mph 5.8 mph 63 % 0.00 in
08:02 52.3 °F 40.1 °F 30.16 in WSW 4.8 mph 8.1 mph 63 % 0.00 in
08:07 52.6 °F 39.9 °F 30.16 in WSW 4.2 mph 9.2 mph 62 % 0.00 in
08:12 52.8 °F 40.1 °F 30.16 in SW 5.5 mph 7.0 mph 62 % 0.00 in
08:17 53.1 °F 40.0 °F 30.16 in SSW 3.7 mph 5.0 mph 61 % 0.00 in
08:23 53.5 °F 39.9 °F 30.16 in South 3.6 mph 8.1 mph 60 % 0.00 in
08:28 54.2 °F 40.6 °F 30.16 in SW 4.9 mph 7.0 mph 60 % 0.00 in
08:33 54.9 °F 40.8 °F 30.16 in WSW 4.9 mph 6.9 mph 59 % 0.00 in
08:38 55.5 °F 41.4 °F 30.16 in SSW 2.5 mph 7.0 mph 59 % 0.00 in
08:43 56.2 °F 41.2 °F 30.15 in SW 5.4 mph 6.9 mph 57 % 0.00 in
08:48 56.9 °F 41.4 °F 30.16 in SW 3.6 mph 4.6 mph 56 % 0.00 in
08:53 57.5 °F 42.4 °F 30.16 in WSW 0.9 mph 2.3 mph 57 % 0.00 in
08:58 58.1 °F 41.5 °F 30.16 in WSW 4.4 mph 8.0 mph 54 % 0.00 in
09:03 58.6 °F 41.5 °F 30.16 in SW 3.0 mph 9.2 mph 53 % 0.00 in
09:14 59.5 °F 41.3 °F 30.15 in West 4.1 mph 6.0 mph 51 % 0.00 in
09:19 59.8 °F 41.6 °F 30.15 in WSW 5.8 mph 9.2 mph 51 % 0.00 in
09:24 60.4 °F 42.7 °F 30.15 in SW 4.8 mph 10.4 mph 52 % 0.00 in
09:29 61.1 °F 42.3 °F 30.15 in WNW 2.9 mph 5.8 mph 50 % 0.00 in
09:34 61.5 °F 44.2 °F 30.15 in WNW 2.0 mph 3.5 mph 53 % 0.00 in
09:39 61.9 °F 43.0 °F 30.15 in West 5.7 mph 9.2 mph 50 % 0.00 in
09:44 62.1 °F 42.7 °F 30.15 in WNW 3.3 mph 5.0 mph 49 % 0.00 in
09:49 62.4 °F 43.0 °F 30.15 in WSW 4.9 mph 6.9 mph 49 % 0.00 in
09:54 62.7 °F 42.2 °F 30.14 in WNW 4.8 mph 8.1 mph 47 % 0.00 in
09:59 63.1 °F 42.0 °F 30.14 in West 3.6 mph 6.9 mph 46 % 0.00 in
10:05 63.5 °F 41.8 °F 30.14 in WNW 4.8 mph 7.0 mph 45 % 0.00 in
10:10 63.7 °F 42.5 °F 30.14 in WNW 4.1 mph 9.2 mph 46 % 0.00 in
10:15 64.1 °F 41.7 °F 30.14 in SW 4.3 mph 9.2 mph 44 % 0.00 in
10:20 64.6 °F 42.2 °F 30.13 in WNW 3.2 mph 6.9 mph 44 % 0.00 in
10:25 64.9 °F 41.9 °F 30.13 in South 4.8 mph 6.9 mph 43 % 0.00 in
10:30 65.4 °F 42.3 °F 30.13 in WSW 3.7 mph 9.2 mph 43 % 0.00 in
10:35 65.8 °F 42.1 °F 30.13 in NNW 3.2 mph 5.0 mph 42 % 0.00 in
10:40 66.3 °F 46.0 °F 30.13 in NNW 1.0 mph 3.5 mph 48 % 0.00 in
10:45 66.7 °F 44.1 °F 30.13 in West 3.5 mph 9.2 mph 44 % 0.00 in
10:50 66.9 °F 41.1 °F 30.12 in SW 6.6 mph 11.5 mph 39 % 0.00 in
10:56 67.1 °F 42.0 °F 30.12 in WNW 3.9 mph 8.1 mph 40 % 0.00 in
11:01 67.6 °F 41.7 °F 30.12 in WSW 5.5 mph 10.4 mph 39 % 0.00 in
11:06 67.8 °F 40.6 °F 30.12 in SW 6.7 mph 9.2 mph 37 % 0.00 in
11:11 68.0 °F 39.3 °F 30.12 in West 5.8 mph 9.2 mph 35 % 0.00 in
11:21 68.5 °F 38.2 °F 30.11 in WNW 4.1 mph 6.9 mph 33 % 0.00 in
11:26 68.7 °F 38.4 °F 30.11 in WSW 4.9 mph 9.2 mph 33 % 0.00 in
11:31 68.9 °F 39.4 °F 30.11 in NW 3.9 mph 6.9 mph 34 % 0.00 in
11:36 69.2 °F 40.4 °F 30.11 in SW 2.9 mph 8.1 mph 35 % 0.00 in
11:41 69.8 °F 39.4 °F 30.10 in WSW 3.5 mph 6.0 mph 33 % 0.00 in
11:47 70.4 °F 41.4 °F 30.10 in SW 0.5 mph 4.6 mph 35 % 0.00 in
11:52 71.2 °F 40.6 °F 30.10 in SSW 8.0 mph 12.0 mph 33 % 0.00 in
11:57 71.6 °F 39.3 °F 30.10 in SSW 6.7 mph 11.5 mph 31 % 0.00 in
12:02 71.9 °F 38.8 °F 30.10 in WSW 8.4 mph 14.0 mph 30 % 0.00 in
12:07 72.0 °F 38.9 °F 30.10 in West 6.6 mph 11.0 mph 30 % 0.00 in
12:12 72.1 °F 38.9 °F 30.10 in SSW 5.5 mph 8.1 mph 30 % 0.00 in
12:17 72.4 °F 38.3 °F 30.09 in SSW 6.9 mph 11.5 mph 29 % 0.00 in
12:22 72.5 °F 38.4 °F 30.09 in WSW 7.2 mph 12.7 mph 29 % 0.00 in
12:27 72.3 °F 38.2 °F 30.09 in WSW 9.9 mph 15.0 mph 29 % 0.00 in
12:32 72.3 °F 41.6 °F 30.08 in SSW 3.6 mph 8.1 mph 33 % 0.00 in
12:38 72.4 °F 40.9 °F 30.08 in South 2.6 mph 10.4 mph 32 % 0.00 in
12:43 72.7 °F 39.5 °F 30.08 in SW 12.6 mph 18.4 mph 30 % 0.00 in
12:48 72.6 °F 39.4 °F 30.08 in SSW 7.1 mph 11.5 mph 30 % 0.00 in
12:53 72.6 °F 40.2 °F 30.07 in WSW 7.5 mph 12.0 mph 31 % 0.00 in
12:58 72.7 °F 39.5 °F 30.07 in WSW 7.3 mph 11.5 mph 30 % 0.00 in
13:03 72.9 °F 41.3 °F 30.06 in South 3.8 mph 8.1 mph 32 % 0.00 in
13:08 73.3 °F 43.2 °F 30.06 in SW 4.9 mph 8.0 mph 34 % 0.00 in
13:13 73.4 °F 40.9 °F 30.06 in SW 5.7 mph 13.8 mph 31 % 0.00 in
13:18 73.5 °F 41.0 °F 30.06 in WSW 12.5 mph 12.7 mph 31 % 0.00 in
13:23 73.1 °F 40.7 °F 30.06 in SSW 10.9 mph 19.6 mph 31 % 0.00 in
13:29 72.9 °F 41.3 °F 30.05 in SW 5.7 mph 11.5 mph 32 % 0.00 in
13:39 72.9 °F 42.9 °F 30.05 in South 4.0 mph 10.4 mph 34 % 0.00 in
13:44 73.0 °F 43.7 °F 30.05 in WSW 3.3 mph 6.0 mph 35 % 0.00 in
13:49 73.2 °F 43.1 °F 30.05 in South 5.4 mph 9.2 mph 34 % 0.00 in
13:54 72.9 °F 41.3 °F 30.05 in SSW 6.8 mph 11.5 mph 32 % 0.00 in
13:59 72.7 °F 43.5 °F 30.05 in West 5.3 mph 8.1 mph 35 % 0.00 in
14:04 72.4 °F 42.4 °F 30.05 in SSW 6.5 mph 14.0 mph 34 % 0.00 in
14:09 72.3 °F 43.8 °F 30.04 in SSW 4.5 mph 11.5 mph 36 % 0.00 in
14:14 72.4 °F 43.9 °F 30.04 in South 5.8 mph 9.2 mph 36 % 0.00 in
14:20 72.2 °F 44.5 °F 30.04 in SSW 5.7 mph 9.2 mph 37 % 0.00 in
14:25 72.1 °F 45.1 °F 30.03 in SSW 4.3 mph 11.5 mph 38 % 0.00 in
14:30 72.0 °F 44.3 °F 30.03 in SW 3.7 mph 13.8 mph 37 % 0.00 in
14:35 71.9 °F 43.5 °F 30.03 in SSW 7.2 mph 10.4 mph 36 % 0.00 in
14:45 71.1 °F 44.2 °F 30.03 in SSW 4.2 mph 9.0 mph 38 % 0.00 in
14:50 71.0 °F 44.8 °F 30.02 in SW 3.5 mph 8.1 mph 39 % 0.00 in
14:55 70.6 °F 44.4 °F 30.02 in SSW 4.9 mph 9.2 mph 39 % 0.00 in
15:00 70.3 °F 44.2 °F 30.01 in SW 5.8 mph 10.0 mph 39 % 0.00 in
15:05 70.3 °F 45.5 °F 30.01 in SSW 4.7 mph 8.1 mph 41 % 0.00 in
15:11 70.6 °F 45.1 °F 30.01 in SSW 3.4 mph 5.0 mph 40 % 0.00 in
15:16 70.3 °F 43.5 °F 30.01 in South 5.5 mph 9.2 mph 38 % 0.00 in
15:21 70.4 °F 43.6 °F 30.00 in SSE 3.7 mph 6.9 mph 38 % 0.00 in
15:26 70.6 °F 43.7 °F 30.00 in SSW 5.3 mph 9.2 mph 38 % 0.00 in
15:31 70.6 °F 42.3 °F 30.00 in South 4.3 mph 8.0 mph 36 % 0.00 in
15:36 70.2 °F 43.4 °F 29.99 in SSE 4.4 mph 6.9 mph 38 % 0.00 in
15:41 70.1 °F 42.6 °F 29.99 in South 4.4 mph 9.2 mph 37 % 0.00 in
15:46 69.5 °F 41.4 °F 29.99 in SSW 3.2 mph 6.9 mph 36 % 0.00 in
15:51 69.7 °F 43.6 °F 29.99 in SSW 7.0 mph 7.0 mph 39 % 0.00 in
15:56 69.8 °F 41.6 °F 29.99 in South 3.5 mph 5.8 mph 36 % 0.00 in
16:02 69.4 °F 42.0 °F 29.99 in SSE 4.7 mph 10.4 mph 37 % 0.00 in
16:12 69.8 °F 42.3 °F 29.98 in South 4.7 mph 9.2 mph 37 % 0.00 in
16:17 69.8 °F 43.0 °F 29.98 in SSW 3.1 mph 6.9 mph 38 % 0.00 in
16:22 70.2 °F 43.4 °F 29.98 in South 4.0 mph 8.1 mph 38 % 0.00 in
16:27 70.2 °F 42.0 °F 29.98 in SSW 4.0 mph 7.0 mph 36 % 0.00 in
16:32 69.8 °F 42.3 °F 29.98 in SE 3.4 mph 9.2 mph 37 % 0.00 in
16:37 69.3 °F 41.9 °F 29.98 in SSW 4.6 mph 13.8 mph 37 % 0.00 in
16:42 69.0 °F 43.0 °F 29.98 in SSW 4.7 mph 8.1 mph 39 % 0.00 in
16:47 68.8 °F 42.1 °F 29.98 in South 4.7 mph 7.0 mph 38 % 0.00 in
16:53 68.7 °F 42.1 °F 29.97 in South 3.5 mph 8.0 mph 38 % 0.00 in
16:58 68.7 °F 42.1 °F 29.97 in SSW 3.5 mph 8.1 mph 38 % 0.00 in
17:03 68.7 °F 42.1 °F 29.97 in South 6.8 mph 9.2 mph 38 % 0.00 in
17:08 68.6 °F 42.0 °F 29.96 in SSW 9.1 mph 17.3 mph 38 % 0.00 in
17:13 68.5 °F 42.6 °F 29.96 in South 7.0 mph 11.5 mph 39 % 0.00 in
17:23 68.4 °F 42.5 °F 29.96 in South 4.8 mph 8.1 mph 39 % 0.00 in
17:28 68.3 °F 43.7 °F 29.96 in South 1.8 mph 3.5 mph 41 % 0.00 in
17:33 68.0 °F 42.8 °F 29.96 in SSW 4.9 mph 11.5 mph 40 % 0.00 in
17:38 67.5 °F 43.0 °F 29.95 in South 4.7 mph 5.8 mph 41 % 0.00 in
17:44 67.0 °F 43.8 °F 29.96 in SSW 5.3 mph 10.4 mph 43 % 0.00 in
17:49 66.5 °F 44.5 °F 29.96 in South 5.2 mph 10.4 mph 45 % 0.00 in
17:59 65.9 °F 45.6 °F 29.95 in South 3.5 mph 7.0 mph 48 % 0.00 in
18:04 65.7 °F 46.5 °F 29.95 in SSW 2.2 mph 4.6 mph 50 % 0.00 in
18:09 65.5 °F 46.9 °F 29.95 in South 2.8 mph 7.0 mph 51 % 0.00 in
18:14 65.2 °F 47.1 °F 29.95 in SSW 4.1 mph 6.9 mph 52 % 0.00 in
18:19 64.8 °F 46.8 °F 29.95 in South 1.9 mph 6.9 mph 52 % 0.00 in
18:24 64.6 °F 47.6 °F 29.95 in South 3.2 mph 5.8 mph 54 % 0.00 in
18:29 64.4 °F 47.4 °F 29.95 in SSW 4.6 mph 8.1 mph 54 % 0.00 in
18:35 64.1 °F 47.6 °F 29.95 in SSW 5.4 mph 9.2 mph 55 % 0.00 in
18:40 63.9 °F 47.4 °F 29.94 in South 3.9 mph 9.2 mph 55 % 0.00 in
18:45 63.6 °F 47.1 °F 29.94 in SSW 4.5 mph 9.2 mph 55 % 0.00 in
18:50 63.4 °F 46.9 °F 29.94 in South 2.7 mph 6.9 mph 55 % 0.00 in
18:55 63.3 °F 47.3 °F 29.94 in SSW 5.3 mph 8.1 mph 56 % 0.00 in
19:00 63.1 °F 47.1 °F 29.94 in SSW 2.7 mph 7.0 mph 56 % 0.00 in
19:05 62.9 °F 47.0 °F 29.94 in South 2.4 mph 4.6 mph 56 % 0.00 in
19:10 62.8 °F 46.9 °F 29.94 in SSW 3.9 mph 6.9 mph 56 % 0.00 in
19:15 62.7 °F 47.2 °F 29.94 in SSW 4.9 mph 5.8 mph 57 % 0.00 in
19:21 62.5 °F 47.1 °F 29.94 in SSW 3.3 mph 8.1 mph 57 % 0.00 in
19:26 62.4 °F 47.4 °F 29.94 in South 2.7 mph 5.8 mph 58 % 0.00 in
19:31 62.4 °F 47.4 °F 29.94 in SSW 4.5 mph 6.9 mph 58 % 0.00 in
19:36 62.3 °F 47.8 °F 29.94 in South 4.9 mph 6.9 mph 59 % 0.00 in
19:41 62.2 °F 48.1 °F 29.94 in South 3.3 mph 5.8 mph 60 % 0.00 in
19:46 62.1 °F 48.0 °F 29.94 in South 5.3 mph 8.1 mph 60 % 0.00 in
19:51 61.9 °F 48.3 °F 29.95 in South 4.1 mph 6.9 mph 61 % 0.00 in
19:56 61.8 °F 48.6 °F 29.95 in South 4.4 mph 5.8 mph 62 % 0.00 in
20:01 61.7 °F 49.0 °F 29.95 in SSW 4.9 mph 10.4 mph 63 % 0.00 in
20:06 61.5 °F 49.2 °F 29.95 in South 4.8 mph 6.9 mph 64 % 0.00 in
20:12 61.3 °F 49.0 °F 29.95 in SW 2.7 mph 5.8 mph 64 % 0.00 in
20:17 61.2 °F 49.3 °F 29.95 in South 3.3 mph 8.1 mph 65 % 0.00 in
20:22 61.1 °F 49.7 °F 29.95 in South 4.4 mph 6.9 mph 66 % 0.00 in
20:27 61.0 °F 50.0 °F 29.95 in SSW 3.3 mph 6.9 mph 67 % 0.00 in
20:32 60.9 °F 50.3 °F 29.95 in SSW 3.2 mph 5.8 mph 68 % 0.00 in
20:37 60.8 °F 50.2 °F 29.95 in SSW 4.1 mph 5.8 mph 68 % 0.00 in
20:42 60.8 °F 50.2 °F 29.95 in SSW 3.7 mph 9.2 mph 68 % 0.00 in
20:52 60.8 °F 50.6 °F 29.95 in SSW 1.2 mph 4.6 mph 69 % 0.00 in
20:57 60.7 °F 50.9 °F 29.95 in SSW 3.0 mph 6.9 mph 70 % 0.00 in
21:03 60.8 °F 51.0 °F 29.95 in SSW 3.5 mph 5.0 mph 70 % 0.00 in
21:08 60.7 °F 50.9 °F 29.95 in South 3.5 mph 6.9 mph 70 % 0.00 in
21:13 60.7 °F 51.2 °F 29.95 in SW 1.2 mph 5.8 mph 71 % 0.00 in
21:18 60.7 °F 51.2 °F 29.95 in SSW 3.2 mph 6.9 mph 71 % 0.00 in
21:23 60.7 °F 51.2 °F 29.95 in SSE 3.2 mph 5.8 mph 71 % 0.00 in
21:28 60.6 °F 51.1 °F 29.96 in SSW 3.8 mph 6.9 mph 71 % 0.00 in
21:33 60.6 °F 51.5 °F 29.95 in SSW 4.5 mph 9.2 mph 72 % 0.00 in
21:38 60.5 °F 51.4 °F 29.96 in SSW 5.4 mph 7.0 mph 72 % 0.00 in
21:43 60.5 °F 51.8 °F 29.96 in SSW 3.5 mph 5.8 mph 73 % 0.00 in
21:48 60.6 °F 51.9 °F 29.95 in SSW 4.5 mph 7.0 mph 73 % 0.00 in
21:54 60.6 °F 51.9 °F 29.95 in SSW 1.8 mph 5.8 mph 73 % 0.00 in
21:59 60.6 °F 52.3 °F 29.95 in SSW 2.9 mph 5.8 mph 74 % 0.00 in
22:04 60.7 °F 52.4 °F 29.96 in SSW 2.7 mph 4.6 mph 74 % 0.00 in
22:09 60.7 °F 52.4 °F 29.96 in SW 1.3 mph 3.5 mph 74 % 0.00 in
22:14 60.8 °F 52.5 °F 29.95 in SSW 3.7 mph 6.9 mph 74 % 0.00 in
22:19 60.8 °F 52.5 °F 29.95 in SW 2.5 mph 4.0 mph 74 % 0.00 in
22:24 60.9 °F 52.6 °F 29.95 in South 2.8 mph 6.9 mph 74 % 0.00 in
22:29 60.9 °F 52.6 °F 29.95 in SW 3.7 mph 5.8 mph 74 % 0.00 in
22:34 60.9 °F 52.6 °F 29.95 in SW 2.6 mph 5.0 mph 74 % 0.00 in
22:39 61.0 °F 52.7 °F 29.95 in SSW 2.7 mph 4.6 mph 74 % 0.00 in
22:45 61.0 °F 52.7 °F 29.95 in SSW 1.8 mph 4.6 mph 74 % 0.00 in
22:50 61.1 °F 52.7 °F 29.95 in WSW 4.3 mph 5.0 mph 74 % 0.00 in
22:55 61.1 °F 52.7 °F 29.95 in SSW 3.5 mph 5.8 mph 74 % 0.00 in
23:00 61.1 °F 52.7 °F 29.95 in SW 3.2 mph 5.8 mph 74 % 0.00 in
23:05 61.2 °F 52.8 °F 29.95 in SW 2.4 mph 4.0 mph 74 % 0.00 in
23:10 61.2 °F 52.8 °F 29.95 in SW 3.9 mph 8.1 mph 74 % 0.00 in
23:15 61.3 °F 52.9 °F 29.95 in SSW 4.1 mph 5.8 mph 74 % 0.00 in
23:20 61.4 °F 53.0 °F 29.94 in SW 0.9 mph 3.5 mph 74 % 0.00 in
23:25 61.4 °F 53.0 °F 29.95 in SSW 3.7 mph 4.6 mph 74 % 0.00 in
23:30 61.5 °F 53.1 °F 29.95 in SW 4.3 mph 5.8 mph 74 % 0.00 in
23:36 61.6 °F 53.2 °F 29.95 in SW 1.9 mph 3.5 mph 74 % 0.00 in
23:41 61.7 °F 53.3 °F 29.94 in SSW 3.1 mph 7.0 mph 74 % 0.00 in
23:46 61.7 °F 53.3 °F 29.94 in SSW 1.5 mph 4.0 mph 74 % 0.00 in
23:51 61.8 °F 53.4 °F 29.94 in SSW 3.7 mph 4.6 mph 74 % 0.00 in
23:56 61.9 °F 53.5 °F 29.94 in SSW 2.6 mph 4.0 mph 74 % 0.00 in
Crab Meadow Weather
Compliments of Weather Underground - 2.75 mb

Script developed by  Jim McMurry - jmcmurry@mwt.net Adapted for the template by  Wim van der Kuil - Leuven-Template.eu

Astronomy: A year on Venus is 225 days.